sensor_id;sensor_type;location;lat;lon;timestamp;P1;durP1;ratioP1;P2;durP2;ratioP2
417;SDS011;49;48.530;9.200;2023-02-12T00:00:41;56.27;;;31.87;;
417;SDS011;49;48.530;9.200;2023-02-12T00:03:09;53.07;;;31.67;;
417;SDS011;49;48.530;9.200;2023-02-12T00:05:36;54.07;;;33.00;;
417;SDS011;49;48.530;9.200;2023-02-12T00:08:03;61.27;;;32.77;;
417;SDS011;49;48.530;9.200;2023-02-12T00:10:30;56.33;;;33.00;;
417;SDS011;49;48.530;9.200;2023-02-12T00:12:57;57.67;;;31.37;;
417;SDS011;49;48.530;9.200;2023-02-12T00:15:24;50.60;;;31.20;;
417;SDS011;49;48.530;9.200;2023-02-12T00:17:53;58.93;;;33.30;;
417;SDS011;49;48.530;9.200;2023-02-12T00:20:20;54.43;;;31.07;;
417;SDS011;49;48.530;9.200;2023-02-12T00:22:47;62.80;;;34.80;;
417;SDS011;49;48.530;9.200;2023-02-12T00:25:14;56.90;;;31.10;;
417;SDS011;49;48.530;9.200;2023-02-12T00:27:42;54.63;;;33.23;;
417;SDS011;49;48.530;9.200;2023-02-12T00:30:10;58.87;;;31.87;;
417;SDS011;49;48.530;9.200;2023-02-12T00:32:37;60.40;;;32.30;;
417;SDS011;49;48.530;9.200;2023-02-12T00:35:06;50.00;;;30.77;;
417;SDS011;49;48.530;9.200;2023-02-12T00:37:33;54.57;;;31.40;;
417;SDS011;49;48.530;9.200;2023-02-12T00:40:00;57.13;;;31.67;;
417;SDS011;49;48.530;9.200;2023-02-12T00:42:27;56.23;;;32.50;;
417;SDS011;49;48.530;9.200;2023-02-12T00:44:54;54.23;;;31.93;;
417;SDS011;49;48.530;9.200;2023-02-12T00:47:21;55.20;;;33.10;;
417;SDS011;49;48.530;9.200;2023-02-12T00:49:48;58.30;;;33.80;;
417;SDS011;49;48.530;9.200;2023-02-12T00:52:16;58.70;;;34.03;;
417;SDS011;49;48.530;9.200;2023-02-12T00:54:43;59.83;;;31.03;;
417;SDS011;49;48.530;9.200;2023-02-12T00:57:11;54.50;;;32.10;;
417;SDS011;49;48.530;9.200;2023-02-12T00:59:38;51.43;;;31.47;;
417;SDS011;49;48.530;9.200;2023-02-12T01:02:06;60.37;;;32.40;;
417;SDS011;49;48.530;9.200;2023-02-12T01:04:33;56.00;;;32.40;;
417;SDS011;49;48.530;9.200;2023-02-12T01:07:01;52.63;;;30.10;;
417;SDS011;49;48.530;9.200;2023-02-12T01:09:30;53.33;;;31.17;;
417;SDS011;49;48.530;9.200;2023-02-12T01:11:57;57.60;;;32.70;;
417;SDS011;49;48.530;9.200;2023-02-12T01:14:24;55.03;;;30.53;;
417;SDS011;49;48.530;9.200;2023-02-12T01:16:51;50.47;;;31.87;;
417;SDS011;49;48.530;9.200;2023-02-12T01:19:18;53.23;;;30.63;;
417;SDS011;49;48.530;9.200;2023-02-12T01:21:45;51.53;;;30.97;;
417;SDS011;49;48.530;9.200;2023-02-12T01:24:12;48.47;;;29.10;;
417;SDS011;49;48.530;9.200;2023-02-12T01:26:41;60.30;;;30.43;;
417;SDS011;49;48.530;9.200;2023-02-12T01:29:09;60.10;;;31.70;;
417;SDS011;49;48.530;9.200;2023-02-12T01:31:36;53.63;;;31.67;;
417;SDS011;49;48.530;9.200;2023-02-12T01:34:06;53.47;;;32.40;;
417;SDS011;49;48.530;9.200;2023-02-12T01:36:35;63.23;;;32.30;;
417;SDS011;49;48.530;9.200;2023-02-12T01:39:02;54.83;;;31.70;;
417;SDS011;49;48.530;9.200;2023-02-12T01:41:30;52.10;;;31.13;;
417;SDS011;49;48.530;9.200;2023-02-12T01:44:16;50.37;;;28.87;;
417;SDS011;49;48.530;9.200;2023-02-12T01:46:45;58.70;;;31.17;;
417;SDS011;49;48.530;9.200;2023-02-12T01:49:14;53.57;;;31.70;;
417;SDS011;49;48.530;9.200;2023-02-12T01:51:44;51.80;;;28.73;;
417;SDS011;49;48.530;9.200;2023-02-12T01:54:13;56.40;;;31.70;;
417;SDS011;49;48.530;9.200;2023-02-12T01:56:42;52.40;;;30.80;;
417;SDS011;49;48.530;9.200;2023-02-12T01:59:09;52.10;;;30.30;;
417;SDS011;49;48.530;9.200;2023-02-12T02:01:39;54.93;;;31.30;;
417;SDS011;49;48.530;9.200;2023-02-12T02:04:07;47.63;;;30.73;;
417;SDS011;49;48.530;9.200;2023-02-12T02:06:41;50.93;;;30.10;;
417;SDS011;49;48.530;9.200;2023-02-12T02:09:12;55.43;;;30.20;;
417;SDS011;49;48.530;9.200;2023-02-12T02:11:40;60.03;;;32.73;;
417;SDS011;49;48.530;9.200;2023-02-12T02:14:24;49.80;;;30.40;;
417;SDS011;49;48.530;9.200;2023-02-12T02:17:26;52.00;;;30.93;;
417;SDS011;49;48.530;9.200;2023-02-12T02:20:08;56.10;;;31.10;;
417;SDS011;49;48.530;9.200;2023-02-12T02:22:58;53.30;;;29.67;;
417;SDS011;49;48.530;9.200;2023-02-12T02:28:52;63.03;;;33.90;;
417;SDS011;49;48.530;9.200;2023-02-12T02:31:31;52.73;;;31.87;;
417;SDS011;49;48.530;9.200;2023-02-12T02:34:07;52.77;;;31.20;;
417;SDS011;49;48.530;9.200;2023-02-12T02:36:43;57.53;;;33.13;;
417;SDS011;49;48.530;9.200;2023-02-12T02:39:14;58.97;;;32.90;;
417;SDS011;49;48.530;9.200;2023-02-12T02:41:45;57.07;;;30.13;;
417;SDS011;49;48.530;9.200;2023-02-12T02:44:16;50.83;;;31.67;;
417;SDS011;49;48.530;9.200;2023-02-12T02:46:49;56.10;;;31.57;;
417;SDS011;49;48.530;9.200;2023-02-12T02:49:20;60.70;;;32.07;;
417;SDS011;49;48.530;9.200;2023-02-12T02:51:52;51.83;;;31.43;;
417;SDS011;49;48.530;9.200;2023-02-12T02:54:25;55.93;;;32.10;;
417;SDS011;49;48.530;9.200;2023-02-12T02:56:58;53.63;;;32.10;;
417;SDS011;49;48.530;9.200;2023-02-12T02:59:32;53.60;;;31.60;;
417;SDS011;49;48.530;9.200;2023-02-12T03:02:23;59.17;;;32.07;;
417;SDS011;49;48.530;9.200;2023-02-12T03:04:57;54.13;;;31.10;;
417;SDS011;49;48.530;9.200;2023-02-12T03:07:28;54.73;;;31.37;;
417;SDS011;49;48.530;9.200;2023-02-12T03:10:03;50.20;;;29.60;;
417;SDS011;49;48.530;9.200;2023-02-12T03:12:33;49.23;;;29.97;;
417;SDS011;49;48.530;9.200;2023-02-12T03:15:02;52.70;;;30.10;;
417;SDS011;49;48.530;9.200;2023-02-12T03:17:36;50.30;;;31.37;;
417;SDS011;49;48.530;9.200;2023-02-12T03:20:07;50.23;;;31.20;;
417;SDS011;49;48.530;9.200;2023-02-12T03:22:38;55.30;;;31.60;;
417;SDS011;49;48.530;9.200;2023-02-12T03:25:24;49.20;;;30.80;;
417;SDS011;49;48.530;9.200;2023-02-12T03:27:57;54.40;;;31.30;;
417;SDS011;49;48.530;9.200;2023-02-12T03:30:30;50.57;;;31.93;;
417;SDS011;49;48.530;9.200;2023-02-12T03:33:08;54.87;;;30.70;;
417;SDS011;49;48.530;9.200;2023-02-12T03:35:44;59.50;;;32.67;;
417;SDS011;49;48.530;9.200;2023-02-12T03:41:13;53.93;;;29.40;;
417;SDS011;49;48.530;9.200;2023-02-12T03:43:46;56.13;;;30.77;;
417;SDS011;49;48.530;9.200;2023-02-12T03:46:17;58.23;;;32.07;;
417;SDS011;49;48.530;9.200;2023-02-12T03:48:51;51.30;;;32.07;;
417;SDS011;49;48.530;9.200;2023-02-12T03:51:25;52.90;;;31.60;;
417;SDS011;49;48.530;9.200;2023-02-12T03:53:58;49.50;;;30.13;;
417;SDS011;49;48.530;9.200;2023-02-12T03:56:28;49.33;;;31.50;;
417;SDS011;49;48.530;9.200;2023-02-12T03:59:00;56.17;;;30.27;;
417;SDS011;49;48.530;9.200;2023-02-12T04:01:29;55.53;;;30.90;;
417;SDS011;49;48.530;9.200;2023-02-12T04:03:58;48.90;;;30.07;;
417;SDS011;49;48.530;9.200;2023-02-12T04:06:29;56.83;;;29.87;;
417;SDS011;49;48.530;9.200;2023-02-12T04:08:58;52.13;;;31.03;;
417;SDS011;49;48.530;9.200;2023-02-12T04:11:30;54.47;;;30.80;;
417;SDS011;49;48.530;9.200;2023-02-12T04:14:07;55.77;;;29.80;;
417;SDS011;49;48.530;9.200;2023-02-12T04:16:47;55.10;;;29.73;;
417;SDS011;49;48.530;9.200;2023-02-12T04:19:23;53.13;;;31.33;;
417;SDS011;49;48.530;9.200;2023-02-12T04:22:04;46.30;;;29.97;;
417;SDS011;49;48.530;9.200;2023-02-12T04:24:43;50.90;;;29.87;;
417;SDS011;49;48.530;9.200;2023-02-12T04:27:16;55.50;;;31.37;;
417;SDS011;49;48.530;9.200;2023-02-12T04:29:47;56.57;;;30.83;;
417;SDS011;49;48.530;9.200;2023-02-12T04:32:19;63.70;;;30.73;;
417;SDS011;49;48.530;9.200;2023-02-12T04:34:54;48.73;;;29.60;;
417;SDS011;49;48.530;9.200;2023-02-12T04:37:28;47.17;;;29.13;;
417;SDS011;49;48.530;9.200;2023-02-12T04:39:59;47.90;;;28.60;;
417;SDS011;49;48.530;9.200;2023-02-12T04:42:29;51.83;;;29.30;;
417;SDS011;49;48.530;9.200;2023-02-12T04:44:57;46.00;;;29.90;;
417;SDS011;49;48.530;9.200;2023-02-12T04:47:24;53.30;;;29.53;;
417;SDS011;49;48.530;9.200;2023-02-12T04:49:54;53.47;;;30.53;;
417;SDS011;49;48.530;9.200;2023-02-12T04:52:20;58.43;;;31.80;;
417;SDS011;49;48.530;9.200;2023-02-12T04:54:48;62.07;;;32.03;;
417;SDS011;49;48.530;9.200;2023-02-12T04:57:15;51.57;;;31.73;;
417;SDS011;49;48.530;9.200;2023-02-12T04:59:42;70.70;;;32.33;;
417;SDS011;49;48.530;9.200;2023-02-12T05:02:09;65.37;;;31.70;;
417;SDS011;49;48.530;9.200;2023-02-12T05:04:36;56.03;;;31.20;;
417;SDS011;49;48.530;9.200;2023-02-12T05:07:04;53.20;;;29.27;;
417;SDS011;49;48.530;9.200;2023-02-12T05:09:32;50.90;;;31.37;;
417;SDS011;49;48.530;9.200;2023-02-12T05:11:59;53.57;;;32.57;;
417;SDS011;49;48.530;9.200;2023-02-12T05:14:26;48.90;;;32.20;;
417;SDS011;49;48.530;9.200;2023-02-12T05:16:52;53.10;;;30.77;;
417;SDS011;49;48.530;9.200;2023-02-12T05:19:19;56.30;;;31.67;;
417;SDS011;49;48.530;9.200;2023-02-12T05:21:48;52.70;;;30.70;;
417;SDS011;49;48.530;9.200;2023-02-12T05:24:16;48.60;;;29.77;;
417;SDS011;49;48.530;9.200;2023-02-12T05:26:43;51.17;;;30.13;;
417;SDS011;49;48.530;9.200;2023-02-12T05:29:10;56.00;;;31.30;;
417;SDS011;49;48.530;9.200;2023-02-12T05:31:37;54.13;;;29.70;;
417;SDS011;49;48.530;9.200;2023-02-12T05:34:05;57.60;;;32.37;;
417;SDS011;49;48.530;9.200;2023-02-12T05:36:33;53.90;;;32.30;;
417;SDS011;49;48.530;9.200;2023-02-12T05:39:00;50.63;;;31.50;;
417;SDS011;49;48.530;9.200;2023-02-12T05:41:29;47.20;;;29.43;;
417;SDS011;49;48.530;9.200;2023-02-12T05:43:59;50.80;;;30.70;;
417;SDS011;49;48.530;9.200;2023-02-12T05:46:26;55.30;;;31.17;;
417;SDS011;49;48.530;9.200;2023-02-12T05:48:53;52.17;;;31.63;;
417;SDS011;49;48.530;9.200;2023-02-12T05:51:21;53.07;;;31.63;;
417;SDS011;49;48.530;9.200;2023-02-12T05:53:50;64.10;;;30.40;;
417;SDS011;49;48.530;9.200;2023-02-12T05:56:18;54.70;;;29.87;;
417;SDS011;49;48.530;9.200;2023-02-12T05:58:50;54.37;;;30.77;;
417;SDS011;49;48.530;9.200;2023-02-12T06:01:19;57.30;;;32.00;;
417;SDS011;49;48.530;9.200;2023-02-12T06:03:50;50.73;;;30.57;;
417;SDS011;49;48.530;9.200;2023-02-12T06:06:17;45.93;;;29.50;;
417;SDS011;49;48.530;9.200;2023-02-12T06:08:47;55.30;;;30.03;;
417;SDS011;49;48.530;9.200;2023-02-12T06:11:15;66.50;;;33.00;;
417;SDS011;49;48.530;9.200;2023-02-12T06:13:43;62.73;;;31.33;;
417;SDS011;49;48.530;9.200;2023-02-12T06:16:16;48.83;;;29.20;;
417;SDS011;49;48.530;9.200;2023-02-12T06:18:44;67.87;;;38.93;;
417;SDS011;49;48.530;9.200;2023-02-12T06:21:12;53.40;;;32.07;;
417;SDS011;49;48.530;9.200;2023-02-12T06:23:39;55.23;;;32.83;;
417;SDS011;49;48.530;9.200;2023-02-12T06:26:06;54.00;;;31.40;;
417;SDS011;49;48.530;9.200;2023-02-12T06:28:33;54.73;;;31.37;;
417;SDS011;49;48.530;9.200;2023-02-12T06:31:00;50.50;;;29.00;;
417;SDS011;49;48.530;9.200;2023-02-12T06:33:29;47.97;;;29.63;;
417;SDS011;49;48.530;9.200;2023-02-12T06:35:56;54.17;;;32.53;;
417;SDS011;49;48.530;9.200;2023-02-12T06:38:23;58.53;;;29.93;;
417;SDS011;49;48.530;9.200;2023-02-12T06:40:49;53.70;;;32.50;;
417;SDS011;49;48.530;9.200;2023-02-12T06:43:16;52.77;;;31.87;;
417;SDS011;49;48.530;9.200;2023-02-12T06:45:43;61.10;;;32.30;;
417;SDS011;49;48.530;9.200;2023-02-12T06:48:11;56.10;;;31.60;;
417;SDS011;49;48.530;9.200;2023-02-12T06:50:39;56.93;;;33.60;;
417;SDS011;49;48.530;9.200;2023-02-12T06:53:06;53.47;;;31.63;;
417;SDS011;49;48.530;9.200;2023-02-12T06:55:33;54.10;;;31.90;;
417;SDS011;49;48.530;9.200;2023-02-12T06:58:00;50.80;;;31.23;;
417;SDS011;49;48.530;9.200;2023-02-12T07:00:27;57.83;;;33.60;;
417;SDS011;49;48.530;9.200;2023-02-12T07:02:54;55.97;;;34.20;;
417;SDS011;49;48.530;9.200;2023-02-12T07:05:21;59.13;;;32.07;;
417;SDS011;49;48.530;9.200;2023-02-12T07:07:51;70.33;;;30.83;;
417;SDS011;49;48.530;9.200;2023-02-12T07:10:18;53.40;;;33.27;;
417;SDS011;49;48.530;9.200;2023-02-12T07:12:45;56.90;;;33.00;;
417;SDS011;49;48.530;9.200;2023-02-12T07:15:12;60.47;;;33.73;;
417;SDS011;49;48.530;9.200;2023-02-12T07:17:39;64.77;;;35.23;;
417;SDS011;49;48.530;9.200;2023-02-12T07:20:06;58.80;;;33.37;;
417;SDS011;49;48.530;9.200;2023-02-12T07:22:34;65.23;;;35.03;;
417;SDS011;49;48.530;9.200;2023-02-12T07:25:03;64.80;;;36.67;;
417;SDS011;49;48.530;9.200;2023-02-12T07:27:30;70.20;;;36.50;;
417;SDS011;49;48.530;9.200;2023-02-12T07:29:57;66.90;;;37.10;;
417;SDS011;49;48.530;9.200;2023-02-12T07:32:24;64.53;;;37.40;;
417;SDS011;49;48.530;9.200;2023-02-12T07:34:51;69.83;;;35.90;;
417;SDS011;49;48.530;9.200;2023-02-12T07:37:18;62.20;;;37.47;;
417;SDS011;49;48.530;9.200;2023-02-12T07:39:46;68.43;;;38.57;;
417;SDS011;49;48.530;9.200;2023-02-12T07:42:15;61.57;;;37.00;;
417;SDS011;49;48.530;9.200;2023-02-12T07:44:42;66.33;;;37.87;;
417;SDS011;49;48.530;9.200;2023-02-12T07:47:09;94.00;;;51.37;;
417;SDS011;49;48.530;9.200;2023-02-12T07:49:36;94.57;;;48.17;;
417;SDS011;49;48.530;9.200;2023-02-12T07:52:03;92.77;;;45.00;;
417;SDS011;49;48.530;9.200;2023-02-12T07:54:33;64.43;;;34.77;;
417;SDS011;49;48.530;9.200;2023-02-12T07:57:00;59.37;;;34.77;;
417;SDS011;49;48.530;9.200;2023-02-12T07:59:29;67.93;;;38.10;;
417;SDS011;49;48.530;9.200;2023-02-12T08:01:56;64.17;;;31.43;;
417;SDS011;49;48.530;9.200;2023-02-12T08:04:24;53.83;;;33.37;;
417;SDS011;49;48.530;9.200;2023-02-12T08:06:52;55.83;;;33.13;;
417;SDS011;49;48.530;9.200;2023-02-12T08:09:21;65.37;;;36.90;;
417;SDS011;49;48.530;9.200;2023-02-12T08:11:49;55.30;;;32.87;;
417;SDS011;49;48.530;9.200;2023-02-12T08:14:17;59.40;;;36.20;;
417;SDS011;49;48.530;9.200;2023-02-12T08:16:47;52.17;;;32.03;;
417;SDS011;49;48.530;9.200;2023-02-12T08:19:16;59.10;;;32.67;;
417;SDS011;49;48.530;9.200;2023-02-12T08:21:43;58.93;;;36.40;;
417;SDS011;49;48.530;9.200;2023-02-12T08:24:11;54.43;;;32.33;;
417;SDS011;49;48.530;9.200;2023-02-12T08:26:38;51.07;;;32.77;;
417;SDS011;49;48.530;9.200;2023-02-12T08:29:05;56.27;;;33.27;;
417;SDS011;49;48.530;9.200;2023-02-12T08:31:34;55.57;;;32.43;;
417;SDS011;49;48.530;9.200;2023-02-12T08:34:03;57.97;;;36.50;;
417;SDS011;49;48.530;9.200;2023-02-12T08:36:34;58.40;;;33.93;;
417;SDS011;49;48.530;9.200;2023-02-12T08:39:03;61.23;;;35.33;;
417;SDS011;49;48.530;9.200;2023-02-12T08:41:30;56.70;;;34.23;;
417;SDS011;49;48.530;9.200;2023-02-12T08:43:57;82.30;;;40.03;;
417;SDS011;49;48.530;9.200;2023-02-12T08:46:26;59.97;;;33.50;;
417;SDS011;49;48.530;9.200;2023-02-12T08:48:54;63.17;;;33.03;;
417;SDS011;49;48.530;9.200;2023-02-12T08:51:25;62.50;;;33.60;;
417;SDS011;49;48.530;9.200;2023-02-12T08:53:55;65.83;;;37.33;;
417;SDS011;49;48.530;9.200;2023-02-12T08:56:23;67.10;;;36.67;;
417;SDS011;49;48.530;9.200;2023-02-12T08:58:51;56.17;;;35.03;;
417;SDS011;49;48.530;9.200;2023-02-12T09:01:20;54.00;;;33.60;;
417;SDS011;49;48.530;9.200;2023-02-12T09:03:48;58.07;;;33.97;;
417;SDS011;49;48.530;9.200;2023-02-12T09:06:18;56.60;;;33.93;;
417;SDS011;49;48.530;9.200;2023-02-12T09:08:47;69.20;;;42.37;;
417;SDS011;49;48.530;9.200;2023-02-12T09:11:15;49.13;;;30.17;;
417;SDS011;49;48.530;9.200;2023-02-12T09:13:44;54.20;;;33.23;;
417;SDS011;49;48.530;9.200;2023-02-12T09:16:12;58.97;;;36.37;;
417;SDS011;49;48.530;9.200;2023-02-12T09:18:41;53.73;;;34.47;;
417;SDS011;49;48.530;9.200;2023-02-12T09:21:09;57.97;;;34.90;;
417;SDS011;49;48.530;9.200;2023-02-12T09:23:39;65.00;;;38.10;;
417;SDS011;49;48.530;9.200;2023-02-12T09:26:08;60.40;;;32.97;;
417;SDS011;49;48.530;9.200;2023-02-12T09:28:37;53.20;;;33.40;;
417;SDS011;49;48.530;9.200;2023-02-12T09:31:04;46.53;;;30.10;;
417;SDS011;49;48.530;9.200;2023-02-12T09:33:32;55.77;;;33.50;;
417;SDS011;49;48.530;9.200;2023-02-12T09:36:02;57.53;;;34.77;;
417;SDS011;49;48.530;9.200;2023-02-12T09:38:30;59.60;;;33.83;;
417;SDS011;49;48.530;9.200;2023-02-12T09:41:03;46.70;;;30.23;;
417;SDS011;49;48.530;9.200;2023-02-12T09:43:41;50.43;;;30.00;;
417;SDS011;49;48.530;9.200;2023-02-12T09:46:13;55.00;;;32.13;;
417;SDS011;49;48.530;9.200;2023-02-12T09:48:49;59.70;;;34.63;;
417;SDS011;49;48.530;9.200;2023-02-12T09:51:24;46.60;;;29.80;;
417;SDS011;49;48.530;9.200;2023-02-12T09:53:56;53.23;;;32.63;;
417;SDS011;49;48.530;9.200;2023-02-12T09:56:29;49.67;;;32.57;;
417;SDS011;49;48.530;9.200;2023-02-12T09:58:59;52.47;;;33.80;;
417;SDS011;49;48.530;9.200;2023-02-12T10:01:27;51.60;;;29.50;;
417;SDS011;49;48.530;9.200;2023-02-12T10:03:54;50.33;;;30.97;;
417;SDS011;49;48.530;9.200;2023-02-12T10:06:23;49.30;;;30.33;;
417;SDS011;49;48.530;9.200;2023-02-12T10:08:58;45.30;;;28.80;;
417;SDS011;49;48.530;9.200;2023-02-12T10:11:55;46.57;;;28.77;;
417;SDS011;49;48.530;9.200;2023-02-12T10:17:39;47.13;;;29.57;;
417;SDS011;49;48.530;9.200;2023-02-12T10:20:34;42.57;;;25.80;;
417;SDS011;49;48.530;9.200;2023-02-12T10:26:10;31.43;;;19.77;;
417;SDS011;49;48.530;9.200;2023-02-12T10:28:45;45.13;;;26.17;;
417;SDS011;49;48.530;9.200;2023-02-12T10:31:14;32.67;;;19.60;;
417;SDS011;49;48.530;9.200;2023-02-12T10:33:45;32.87;;;18.60;;
417;SDS011;49;48.530;9.200;2023-02-12T10:36:17;32.30;;;19.73;;
417;SDS011;49;48.530;9.200;2023-02-12T10:38:49;32.30;;;20.63;;
417;SDS011;49;48.530;9.200;2023-02-12T10:41:20;40.53;;;19.80;;
417;SDS011;49;48.530;9.200;2023-02-12T10:43:51;31.03;;;20.30;;
417;SDS011;49;48.530;9.200;2023-02-12T10:46:18;32.93;;;21.03;;
417;SDS011;49;48.530;9.200;2023-02-12T10:48:47;28.63;;;18.30;;
417;SDS011;49;48.530;9.200;2023-02-12T10:54:32;28.20;;;18.53;;
417;SDS011;49;48.530;9.200;2023-02-12T10:57:12;24.53;;;16.30;;
417;SDS011;49;48.530;9.200;2023-02-12T10:59:45;21.33;;;14.00;;
417;SDS011;49;48.530;9.200;2023-02-12T11:02:17;23.40;;;15.80;;
417;SDS011;49;48.530;9.200;2023-02-12T11:04:46;23.53;;;15.53;;
417;SDS011;49;48.530;9.200;2023-02-12T11:07:13;24.53;;;14.03;;
417;SDS011;49;48.530;9.200;2023-02-12T11:09:40;17.47;;;11.37;;
417;SDS011;49;48.530;9.200;2023-02-12T11:12:18;10.90;;;7.60;;
417;SDS011;49;48.530;9.200;2023-02-12T11:14:49;8.07;;;6.10;;
417;SDS011;49;48.530;9.200;2023-02-12T11:17:21;10.00;;;6.60;;
417;SDS011;49;48.530;9.200;2023-02-12T11:20:00;7.87;;;5.80;;
417;SDS011;49;48.530;9.200;2023-02-12T11:22:29;9.20;;;6.23;;
417;SDS011;49;48.530;9.200;2023-02-12T11:24:59;8.37;;;5.70;;
417;SDS011;49;48.530;9.200;2023-02-12T11:27:28;7.10;;;5.50;;
417;SDS011;49;48.530;9.200;2023-02-12T11:32:48;13.47;;;6.60;;
417;SDS011;49;48.530;9.200;2023-02-12T11:35:16;8.70;;;5.70;;
417;SDS011;49;48.530;9.200;2023-02-12T11:37:50;8.60;;;4.43;;
417;SDS011;49;48.530;9.200;2023-02-12T11:40:20;5.93;;;4.80;;
417;SDS011;49;48.530;9.200;2023-02-12T11:42:49;6.57;;;4.97;;
417;SDS011;49;48.530;9.200;2023-02-12T11:45:20;7.80;;;5.40;;
417;SDS011;49;48.530;9.200;2023-02-12T11:47:52;6.90;;;5.23;;
417;SDS011;49;48.530;9.200;2023-02-12T11:50:22;19.77;;;11.43;;
417;SDS011;49;48.530;9.200;2023-02-12T11:52:52;16.47;;;11.50;;
417;SDS011;49;48.530;9.200;2023-02-12T11:55:23;18.17;;;11.93;;
417;SDS011;49;48.530;9.200;2023-02-12T11:57:51;16.27;;;10.77;;
417;SDS011;49;48.530;9.200;2023-02-12T12:00:21;20.43;;;13.60;;
417;SDS011;49;48.530;9.200;2023-02-12T12:02:55;18.63;;;12.27;;
417;SDS011;49;48.530;9.200;2023-02-12T12:05:28;25.93;;;12.53;;
417;SDS011;49;48.530;9.200;2023-02-12T12:08:01;22.20;;;13.97;;
417;SDS011;49;48.530;9.200;2023-02-12T12:10:33;24.73;;;13.53;;
417;SDS011;49;48.530;9.200;2023-02-12T12:13:08;19.57;;;11.80;;
417;SDS011;49;48.530;9.200;2023-02-12T12:15:43;17.80;;;11.83;;
417;SDS011;49;48.530;9.200;2023-02-12T12:18:32;18.03;;;10.30;;
417;SDS011;49;48.530;9.200;2023-02-12T12:21:23;13.73;;;10.13;;
417;SDS011;49;48.530;9.200;2023-02-12T12:23:56;13.70;;;10.30;;
417;SDS011;49;48.530;9.200;2023-02-12T12:26:26;18.20;;;10.37;;
417;SDS011;49;48.530;9.200;2023-02-12T12:28:58;14.37;;;9.47;;
417;SDS011;49;48.530;9.200;2023-02-12T12:31:32;21.83;;;12.90;;
417;SDS011;49;48.530;9.200;2023-02-12T12:34:05;10.50;;;7.60;;
417;SDS011;49;48.530;9.200;2023-02-12T12:39:34;12.87;;;6.80;;
417;SDS011;49;48.530;9.200;2023-02-12T12:42:18;8.20;;;5.80;;
417;SDS011;49;48.530;9.200;2023-02-12T12:45:11;9.10;;;6.10;;
417;SDS011;49;48.530;9.200;2023-02-12T12:48:01;8.37;;;6.40;;
417;SDS011;49;48.530;9.200;2023-02-12T12:50:46;10.87;;;7.03;;
417;SDS011;49;48.530;9.200;2023-02-12T12:53:25;9.10;;;6.43;;
417;SDS011;49;48.530;9.200;2023-02-12T12:56:06;9.80;;;6.93;;
417;SDS011;49;48.530;9.200;2023-02-12T12:58:47;8.37;;;6.20;;
417;SDS011;49;48.530;9.200;2023-02-12T13:01:29;13.77;;;7.50;;
417;SDS011;49;48.530;9.200;2023-02-12T13:07:12;9.90;;;7.00;;
417;SDS011;49;48.530;9.200;2023-02-12T13:10:03;12.07;;;7.40;;
417;SDS011;49;48.530;9.200;2023-02-12T13:12:41;12.37;;;7.80;;
417;SDS011;49;48.530;9.200;2023-02-12T13:15:21;12.47;;;6.97;;
417;SDS011;49;48.530;9.200;2023-02-12T13:17:59;11.53;;;7.30;;
417;SDS011;49;48.530;9.200;2023-02-12T13:20:36;8.60;;;6.60;;
417;SDS011;49;48.530;9.200;2023-02-12T13:23:10;9.03;;;7.10;;
417;SDS011;49;48.530;9.200;2023-02-12T13:25:44;10.27;;;7.17;;
417;SDS011;49;48.530;9.200;2023-02-12T13:28:20;9.10;;;6.53;;
417;SDS011;49;48.530;9.200;2023-02-12T13:30:56;10.73;;;6.77;;
417;SDS011;49;48.530;9.200;2023-02-12T13:33:26;10.03;;;6.80;;
417;SDS011;49;48.530;9.200;2023-02-12T13:36:04;9.27;;;6.20;;
417;SDS011;49;48.530;9.200;2023-02-12T13:38:35;8.50;;;6.03;;
417;SDS011;49;48.530;9.200;2023-02-12T13:41:08;9.20;;;6.33;;
417;SDS011;49;48.530;9.200;2023-02-12T13:43:42;9.17;;;6.30;;
417;SDS011;49;48.530;9.200;2023-02-12T13:46:22;9.03;;;6.47;;
417;SDS011;49;48.530;9.200;2023-02-12T13:48:56;9.00;;;5.90;;
417;SDS011;49;48.530;9.200;2023-02-12T13:51:35;9.07;;;6.20;;
417;SDS011;49;48.530;9.200;2023-02-12T13:54:13;8.20;;;5.90;;
417;SDS011;49;48.530;9.200;2023-02-12T13:56:47;8.03;;;5.60;;
417;SDS011;49;48.530;9.200;2023-02-12T14:08:02;8.30;;;6.10;;
417;SDS011;49;48.530;9.200;2023-02-12T14:10:32;9.10;;;6.30;;
417;SDS011;49;48.530;9.200;2023-02-12T14:13:14;8.33;;;6.43;;
417;SDS011;49;48.530;9.200;2023-02-12T14:15:46;8.90;;;6.50;;
417;SDS011;49;48.530;9.200;2023-02-12T14:18:29;9.57;;;7.00;;
417;SDS011;49;48.530;9.200;2023-02-12T14:35:46;10.70;;;6.93;;
417;SDS011;49;48.530;9.200;2023-02-12T14:41:25;10.60;;;7.03;;
417;SDS011;49;48.530;9.200;2023-02-12T14:47:15;15.73;;;6.53;;
417;SDS011;49;48.530;9.200;2023-02-12T14:50:19;10.70;;;6.70;;
417;SDS011;49;48.530;9.200;2023-02-12T14:52:51;11.57;;;7.00;;
417;SDS011;49;48.530;9.200;2023-02-12T14:55:22;10.70;;;7.70;;
417;SDS011;49;48.530;9.200;2023-02-12T14:57:55;8.47;;;5.70;;
417;SDS011;49;48.530;9.200;2023-02-12T15:00:27;8.23;;;6.23;;
417;SDS011;49;48.530;9.200;2023-02-12T15:03:00;11.87;;;6.30;;
417;SDS011;49;48.530;9.200;2023-02-12T15:05:41;8.80;;;6.20;;
417;SDS011;49;48.530;9.200;2023-02-12T15:08:14;8.20;;;6.30;;
417;SDS011;49;48.530;9.200;2023-02-12T15:10:51;8.87;;;6.50;;
417;SDS011;49;48.530;9.200;2023-02-12T15:13:23;10.97;;;6.80;;
417;SDS011;49;48.530;9.200;2023-02-12T15:15:55;10.07;;;6.50;;
417;SDS011;49;48.530;9.200;2023-02-12T15:18:29;9.30;;;6.00;;
417;SDS011;49;48.530;9.200;2023-02-12T15:21:12;10.37;;;6.30;;
417;SDS011;49;48.530;9.200;2023-02-12T15:23:45;8.53;;;5.90;;
417;SDS011;49;48.530;9.200;2023-02-12T15:26:13;8.47;;;5.63;;
417;SDS011;49;48.530;9.200;2023-02-12T15:28:42;12.57;;;7.77;;
417;SDS011;49;48.530;9.200;2023-02-12T15:31:14;7.27;;;6.13;;
417;SDS011;49;48.530;9.200;2023-02-12T15:33:45;8.40;;;5.93;;
417;SDS011;49;48.530;9.200;2023-02-12T15:36:15;14.70;;;7.70;;
417;SDS011;49;48.530;9.200;2023-02-12T15:38:44;10.00;;;6.80;;
417;SDS011;49;48.530;9.200;2023-02-12T15:41:22;10.90;;;7.30;;
417;SDS011;49;48.530;9.200;2023-02-12T15:43:51;12.37;;;8.20;;
417;SDS011;49;48.530;9.200;2023-02-12T15:46:18;9.10;;;6.20;;
417;SDS011;49;48.530;9.200;2023-02-12T15:48:46;11.30;;;6.47;;
417;SDS011;49;48.530;9.200;2023-02-12T15:51:15;12.07;;;6.90;;
417;SDS011;49;48.530;9.200;2023-02-12T15:53:46;10.60;;;6.80;;
417;SDS011;49;48.530;9.200;2023-02-12T15:56:14;8.87;;;6.53;;
417;SDS011;49;48.530;9.200;2023-02-12T15:58:45;16.13;;;11.73;;
417;SDS011;49;48.530;9.200;2023-02-12T16:01:15;9.53;;;6.50;;
417;SDS011;49;48.530;9.200;2023-02-12T16:03:44;8.20;;;5.50;;
417;SDS011;49;48.530;9.200;2023-02-12T16:06:17;13.50;;;7.90;;
417;SDS011;49;48.530;9.200;2023-02-12T16:08:46;9.70;;;6.80;;
417;SDS011;49;48.530;9.200;2023-02-12T16:11:16;10.53;;;7.27;;
417;SDS011;49;48.530;9.200;2023-02-12T16:13:46;8.13;;;6.33;;
417;SDS011;49;48.530;9.200;2023-02-12T16:16:18;7.90;;;5.90;;
417;SDS011;49;48.530;9.200;2023-02-12T16:21:44;11.83;;;8.47;;
417;SDS011;49;48.530;9.200;2023-02-12T16:24:20;10.90;;;8.20;;
417;SDS011;49;48.530;9.200;2023-02-12T16:26:55;10.47;;;7.50;;
417;SDS011;49;48.530;9.200;2023-02-12T16:29:23;12.50;;;6.37;;
417;SDS011;49;48.530;9.200;2023-02-12T16:31:51;11.17;;;6.70;;
417;SDS011;49;48.530;9.200;2023-02-12T16:34:34;11.80;;;7.70;;
417;SDS011;49;48.530;9.200;2023-02-12T16:37:22;11.40;;;7.03;;
417;SDS011;49;48.530;9.200;2023-02-12T16:40:17;11.90;;;7.70;;
417;SDS011;49;48.530;9.200;2023-02-12T16:42:58;9.53;;;6.60;;
417;SDS011;49;48.530;9.200;2023-02-12T16:45:41;9.03;;;6.23;;
417;SDS011;49;48.530;9.200;2023-02-12T16:48:13;11.17;;;8.43;;
417;SDS011;49;48.530;9.200;2023-02-12T16:50:46;13.27;;;7.97;;
417;SDS011;49;48.530;9.200;2023-02-12T16:53:25;13.80;;;9.00;;
417;SDS011;49;48.530;9.200;2023-02-12T16:55:58;19.30;;;12.00;;
417;SDS011;49;48.530;9.200;2023-02-12T16:58:26;18.37;;;10.67;;
417;SDS011;49;48.530;9.200;2023-02-12T17:00:53;26.63;;;11.67;;